sensor_id;sensor_type;location;lat;lon;timestamp;P1;durP1;ratioP1;P2;durP2;ratioP2
22774;SDS011;11554;51.106;3.684;2024-01-30T00:00:00;10.20;;;7.20;;
22774;SDS011;11554;51.106;3.684;2024-01-30T00:05:00;10.60;;;7.30;;
22774;SDS011;11554;51.106;3.684;2024-01-30T00:10:00;10.60;;;7.30;;
22774;SDS011;11554;51.106;3.684;2024-01-30T00:15:00;11.60;;;7.40;;
22774;SDS011;11554;51.106;3.684;2024-01-30T00:20:00;11.60;;;7.40;;
22774;SDS011;11554;51.106;3.684;2024-01-30T00:25:00;11.40;;;7.20;;
22774;SDS011;11554;51.106;3.684;2024-01-30T00:30:00;11.40;;;7.20;;
22774;SDS011;11554;51.106;3.684;2024-01-30T00:35:00;13.40;;;7.90;;
22774;SDS011;11554;51.106;3.684;2024-01-30T00:40:00;13.40;;;7.90;;
22774;SDS011;11554;51.106;3.684;2024-01-30T00:45:00;10.40;;;7.00;;
22774;SDS011;11554;51.106;3.684;2024-01-30T00:50:00;10.40;;;7.00;;
22774;SDS011;11554;51.106;3.684;2024-01-30T00:55:01;12.20;;;7.60;;
22774;SDS011;11554;51.106;3.684;2024-01-30T01:00:00;12.20;;;7.60;;
22774;SDS011;11554;51.106;3.684;2024-01-30T01:05:00;12.00;;;7.50;;
22774;SDS011;11554;51.106;3.684;2024-01-30T01:10:00;12.00;;;7.50;;
22774;SDS011;11554;51.106;3.684;2024-01-30T01:15:00;10.30;;;7.00;;
22774;SDS011;11554;51.106;3.684;2024-01-30T01:20:00;10.30;;;7.00;;
22774;SDS011;11554;51.106;3.684;2024-01-30T01:25:01;10.40;;;7.50;;
22774;SDS011;11554;51.106;3.684;2024-01-30T01:30:00;10.40;;;7.50;;
22774;SDS011;11554;51.106;3.684;2024-01-30T01:35:00;12.50;;;8.10;;
22774;SDS011;11554;51.106;3.684;2024-01-30T01:40:00;12.50;;;8.10;;
22774;SDS011;11554;51.106;3.684;2024-01-30T01:45:00;12.10;;;7.90;;
22774;SDS011;11554;51.106;3.684;2024-01-30T01:50:00;12.10;;;7.90;;
22774;SDS011;11554;51.106;3.684;2024-01-30T01:55:00;13.50;;;7.90;;
22774;SDS011;11554;51.106;3.684;2024-01-30T02:00:01;13.50;;;7.90;;
22774;SDS011;11554;51.106;3.684;2024-01-30T02:05:01;13.90;;;7.50;;
22774;SDS011;11554;51.106;3.684;2024-01-30T02:10:00;13.90;;;7.50;;
22774;SDS011;11554;51.106;3.684;2024-01-30T02:15:00;11.60;;;7.60;;
22774;SDS011;11554;51.106;3.684;2024-01-30T02:20:01;11.60;;;7.60;;
22774;SDS011;11554;51.106;3.684;2024-01-30T02:25:00;11.30;;;7.40;;
22774;SDS011;11554;51.106;3.684;2024-01-30T02:30:00;11.30;;;7.40;;
22774;SDS011;11554;51.106;3.684;2024-01-30T02:35:00;9.70;;;6.80;;
22774;SDS011;11554;51.106;3.684;2024-01-30T02:40:00;9.70;;;6.80;;
22774;SDS011;11554;51.106;3.684;2024-01-30T02:45:00;14.20;;;7.40;;
22774;SDS011;11554;51.106;3.684;2024-01-30T02:50:00;14.20;;;7.40;;
22774;SDS011;11554;51.106;3.684;2024-01-30T02:55:01;12.50;;;7.60;;
22774;SDS011;11554;51.106;3.684;2024-01-30T03:00:00;12.50;;;7.60;;
22774;SDS011;11554;51.106;3.684;2024-01-30T03:05:00;9.30;;;7.50;;
22774;SDS011;11554;51.106;3.684;2024-01-30T03:10:00;9.30;;;7.50;;
22774;SDS011;11554;51.106;3.684;2024-01-30T03:15:00;12.20;;;7.60;;
22774;SDS011;11554;51.106;3.684;2024-01-30T03:20:00;12.20;;;7.60;;
22774;SDS011;11554;51.106;3.684;2024-01-30T03:25:00;12.50;;;7.80;;
22774;SDS011;11554;51.106;3.684;2024-01-30T03:30:00;12.50;;;7.80;;
22774;SDS011;11554;51.106;3.684;2024-01-30T03:35:00;11.60;;;7.40;;
22774;SDS011;11554;51.106;3.684;2024-01-30T03:40:01;11.60;;;7.40;;
22774;SDS011;11554;51.106;3.684;2024-01-30T03:45:01;10.90;;;7.30;;
22774;SDS011;11554;51.106;3.684;2024-01-30T03:50:00;10.90;;;7.30;;
22774;SDS011;11554;51.106;3.684;2024-01-30T03:55:00;11.50;;;8.10;;
22774;SDS011;11554;51.106;3.684;2024-01-30T04:00:00;11.50;;;8.10;;
22774;SDS011;11554;51.106;3.684;2024-01-30T04:05:00;15.00;;;8.50;;
22774;SDS011;11554;51.106;3.684;2024-01-30T04:10:00;15.00;;;8.50;;
22774;SDS011;11554;51.106;3.684;2024-01-30T04:15:00;10.90;;;7.50;;
22774;SDS011;11554;51.106;3.684;2024-01-30T04:20:00;10.90;;;7.50;;
22774;SDS011;11554;51.106;3.684;2024-01-30T04:25:00;12.10;;;8.10;;
22774;SDS011;11554;51.106;3.684;2024-01-30T04:30:00;12.10;;;8.10;;
22774;SDS011;11554;51.106;3.684;2024-01-30T04:35:00;12.80;;;8.50;;
22774;SDS011;11554;51.106;3.684;2024-01-30T04:40:00;12.80;;;8.50;;
22774;SDS011;11554;51.106;3.684;2024-01-30T04:45:00;12.00;;;8.70;;
22774;SDS011;11554;51.106;3.684;2024-01-30T04:50:01;12.00;;;8.70;;
22774;SDS011;11554;51.106;3.684;2024-01-30T04:55:00;12.20;;;8.60;;
22774;SDS011;11554;51.106;3.684;2024-01-30T05:00:00;12.20;;;8.60;;
22774;SDS011;11554;51.106;3.684;2024-01-30T05:05:00;13.00;;;8.70;;
22774;SDS011;11554;51.106;3.684;2024-01-30T05:10:00;13.00;;;8.70;;
22774;SDS011;11554;51.106;3.684;2024-01-30T05:15:00;11.80;;;8.00;;
22774;SDS011;11554;51.106;3.684;2024-01-30T05:20:00;11.80;;;8.00;;
22774;SDS011;11554;51.106;3.684;2024-01-30T05:25:00;12.20;;;8.00;;
22774;SDS011;11554;51.106;3.684;2024-01-30T05:30:00;12.20;;;8.00;;
22774;SDS011;11554;51.106;3.684;2024-01-30T05:35:00;13.60;;;8.60;;
22774;SDS011;11554;51.106;3.684;2024-01-30T05:40:00;13.60;;;8.60;;
22774;SDS011;11554;51.106;3.684;2024-01-30T05:45:00;15.20;;;8.40;;
22774;SDS011;11554;51.106;3.684;2024-01-30T05:50:00;15.20;;;8.40;;
22774;SDS011;11554;51.106;3.684;2024-01-30T05:55:00;13.30;;;8.30;;
22774;SDS011;11554;51.106;3.684;2024-01-30T06:00:00;13.30;;;8.30;;
22774;SDS011;11554;51.106;3.684;2024-01-30T06:05:00;14.00;;;8.90;;
22774;SDS011;11554;51.106;3.684;2024-01-30T06:10:00;14.00;;;8.90;;
22774;SDS011;11554;51.106;3.684;2024-01-30T06:15:00;15.50;;;8.50;;
22774;SDS011;11554;51.106;3.684;2024-01-30T06:20:00;15.50;;;8.50;;
22774;SDS011;11554;51.106;3.684;2024-01-30T06:25:00;12.00;;;8.50;;
22774;SDS011;11554;51.106;3.684;2024-01-30T06:30:00;12.00;;;8.50;;
22774;SDS011;11554;51.106;3.684;2024-01-30T06:35:00;12.70;;;9.00;;
22774;SDS011;11554;51.106;3.684;2024-01-30T06:40:00;12.70;;;9.00;;
22774;SDS011;11554;51.106;3.684;2024-01-30T06:45:00;13.30;;;8.40;;
22774;SDS011;11554;51.106;3.684;2024-01-30T06:50:00;13.30;;;8.40;;
22774;SDS011;11554;51.106;3.684;2024-01-30T06:55:00;16.00;;;8.20;;
22774;SDS011;11554;51.106;3.684;2024-01-30T07:00:00;16.00;;;8.20;;
22774;SDS011;11554;51.106;3.684;2024-01-30T07:05:00;13.20;;;8.50;;
22774;SDS011;11554;51.106;3.684;2024-01-30T07:10:00;13.20;;;8.50;;
22774;SDS011;11554;51.106;3.684;2024-01-30T07:15:00;14.80;;;8.30;;
22774;SDS011;11554;51.106;3.684;2024-01-30T07:20:00;14.80;;;8.30;;
22774;SDS011;11554;51.106;3.684;2024-01-30T07:25:00;15.80;;;7.90;;
22774;SDS011;11554;51.106;3.684;2024-01-30T07:30:00;15.80;;;7.90;;
22774;SDS011;11554;51.106;3.684;2024-01-30T07:35:00;11.70;;;8.00;;
22774;SDS011;11554;51.106;3.684;2024-01-30T07:40:01;11.70;;;8.00;;
22774;SDS011;11554;51.106;3.684;2024-01-30T07:45:00;12.20;;;8.00;;
22774;SDS011;11554;51.106;3.684;2024-01-30T07:50:00;12.20;;;8.00;;
22774;SDS011;11554;51.106;3.684;2024-01-30T07:55:00;13.30;;;8.60;;
22774;SDS011;11554;51.106;3.684;2024-01-30T08:00:01;13.30;;;8.60;;
22774;SDS011;11554;51.106;3.684;2024-01-30T08:05:00;16.60;;;8.50;;
22774;SDS011;11554;51.106;3.684;2024-01-30T08:10:00;16.60;;;8.50;;
22774;SDS011;11554;51.106;3.684;2024-01-30T08:15:00;13.30;;;9.10;;
22774;SDS011;11554;51.106;3.684;2024-01-30T08:20:00;13.30;;;9.10;;
22774;SDS011;11554;51.106;3.684;2024-01-30T08:25:00;18.20;;;9.40;;
22774;SDS011;11554;51.106;3.684;2024-01-30T08:30:00;18.20;;;9.40;;
22774;SDS011;11554;51.106;3.684;2024-01-30T08:35:00;16.60;;;9.80;;
22774;SDS011;11554;51.106;3.684;2024-01-30T08:40:00;16.60;;;9.80;;
22774;SDS011;11554;51.106;3.684;2024-01-30T08:45:00;15.80;;;9.30;;
22774;SDS011;11554;51.106;3.684;2024-01-30T08:50:00;15.80;;;9.30;;
22774;SDS011;11554;51.106;3.684;2024-01-30T08:55:00;16.70;;;8.40;;
22774;SDS011;11554;51.106;3.684;2024-01-30T09:00:00;16.70;;;8.40;;
22774;SDS011;11554;51.106;3.684;2024-01-30T09:05:00;14.50;;;7.90;;
22774;SDS011;11554;51.106;3.684;2024-01-30T09:10:00;14.50;;;7.90;;
22774;SDS011;11554;51.106;3.684;2024-01-30T09:15:00;12.70;;;6.00;;
22774;SDS011;11554;51.106;3.684;2024-01-30T09:20:00;12.70;;;6.00;;
22774;SDS011;11554;51.106;3.684;2024-01-30T09:25:00;10.10;;;3.60;;
22774;SDS011;11554;51.106;3.684;2024-01-30T09:30:00;10.10;;;3.60;;
22774;SDS011;11554;51.106;3.684;2024-01-30T09:35:00;7.80;;;2.80;;
22774;SDS011;11554;51.106;3.684;2024-01-30T09:40:00;7.80;;;2.80;;
22774;SDS011;11554;51.106;3.684;2024-01-30T09:45:01;9.10;;;3.00;;
22774;SDS011;11554;51.106;3.684;2024-01-30T09:50:01;9.10;;;3.00;;
22774;SDS011;11554;51.106;3.684;2024-01-30T09:55:00;7.70;;;2.60;;
22774;SDS011;11554;51.106;3.684;2024-01-30T10:00:00;7.70;;;2.60;;
22774;SDS011;11554;51.106;3.684;2024-01-30T10:05:00;5.30;;;1.80;;
22774;SDS011;11554;51.106;3.684;2024-01-30T10:10:00;5.30;;;1.80;;
22774;SDS011;11554;51.106;3.684;2024-01-30T10:15:00;6.70;;;1.70;;
22774;SDS011;11554;51.106;3.684;2024-01-30T10:20:04;7.10;;;1.30;;
22774;SDS011;11554;51.106;3.684;2024-01-30T10:25:00;7.10;;;1.30;;
22774;SDS011;11554;51.106;3.684;2024-01-30T10:30:00;7.10;;;1.30;;
22774;SDS011;11554;51.106;3.684;2024-01-30T10:35:00;5.30;;;1.40;;
22774;SDS011;11554;51.106;3.684;2024-01-30T10:40:03;5.90;;;1.70;;
22774;SDS011;11554;51.106;3.684;2024-01-30T10:45:06;5.90;;;1.70;;
22774;SDS011;11554;51.106;3.684;2024-01-30T10:50:02;5.90;;;1.70;;
22774;SDS011;11554;51.106;3.684;2024-01-30T10:55:00;4.40;;;1.00;;
22774;SDS011;11554;51.106;3.684;2024-01-30T11:00:02;4.40;;;1.00;;
22774;SDS011;11554;51.106;3.684;2024-01-30T11:05:00;4.70;;;1.00;;
22774;SDS011;11554;51.106;3.684;2024-01-30T11:10:02;4.70;;;1.00;;
22774;SDS011;11554;51.106;3.684;2024-01-30T11:15:03;4.00;;;0.90;;
22774;SDS011;11554;51.106;3.684;2024-01-30T11:20:02;6.30;;;1.10;;
22774;SDS011;11554;51.106;3.684;2024-01-30T11:25:01;6.30;;;1.10;;
22774;SDS011;11554;51.106;3.684;2024-01-30T11:30:02;5.40;;;1.10;;
22774;SDS011;11554;51.106;3.684;2024-01-30T11:35:03;5.40;;;1.10;;
22774;SDS011;11554;51.106;3.684;2024-01-30T11:40:02;4.90;;;0.90;;
22774;SDS011;11554;51.106;3.684;2024-01-30T11:45:00;4.90;;;0.90;;
22774;SDS011;11554;51.106;3.684;2024-01-30T11:50:00;4.90;;;0.90;;
22774;SDS011;11554;51.106;3.684;2024-01-30T11:55:00;11.50;;;2.40;;
22774;SDS011;11554;51.106;3.684;2024-01-30T12:00:00;5.50;;;1.10;;
22774;SDS011;11554;51.106;3.684;2024-01-30T12:05:03;5.50;;;1.10;;
22774;SDS011;11554;51.106;3.684;2024-01-30T12:10:00;10.30;;;2.10;;
22774;SDS011;11554;51.106;3.684;2024-01-30T12:15:00;10.30;;;2.10;;
22774;SDS011;11554;51.106;3.684;2024-01-30T12:20:04;4.90;;;1.10;;
22774;SDS011;11554;51.106;3.684;2024-01-30T12:25:00;4.90;;;1.10;;
22774;SDS011;11554;51.106;3.684;2024-01-30T12:30:00;3.00;;;0.70;;
22774;SDS011;11554;51.106;3.684;2024-01-30T12:35:01;3.00;;;0.70;;
22774;SDS011;11554;51.106;3.684;2024-01-30T12:40:01;4.60;;;0.90;;
22774;SDS011;11554;51.106;3.684;2024-01-30T12:45:02;4.60;;;0.90;;
22774;SDS011;11554;51.106;3.684;2024-01-30T12:50:00;6.30;;;0.90;;
22774;SDS011;11554;51.106;3.684;2024-01-30T12:55:00;6.30;;;0.90;;
22774;SDS011;11554;51.106;3.684;2024-01-30T13:00:00;5.60;;;1.50;;
22774;SDS011;11554;51.106;3.684;2024-01-30T13:05:00;5.60;;;1.50;;
22774;SDS011;11554;51.106;3.684;2024-01-30T13:10:00;5.70;;;1.00;;
22774;SDS011;11554;51.106;3.684;2024-01-30T13:15:01;5.70;;;1.00;;
22774;SDS011;11554;51.106;3.684;2024-01-30T13:20:00;5.70;;;0.90;;
22774;SDS011;11554;51.106;3.684;2024-01-30T13:25:00;5.70;;;0.90;;
22774;SDS011;11554;51.106;3.684;2024-01-30T13:30:00;5.00;;;1.30;;
22774;SDS011;11554;51.106;3.684;2024-01-30T13:35:00;5.00;;;1.30;;
22774;SDS011;11554;51.106;3.684;2024-01-30T13:40:00;4.90;;;1.20;;
22774;SDS011;11554;51.106;3.684;2024-01-30T13:45:00;4.90;;;1.20;;
22774;SDS011;11554;51.106;3.684;2024-01-30T13:50:00;7.80;;;1.70;;
22774;SDS011;11554;51.106;3.684;2024-01-30T13:55:00;7.80;;;1.70;;
22774;SDS011;11554;51.106;3.684;2024-01-30T14:00:00;5.00;;;1.70;;
22774;SDS011;11554;51.106;3.684;2024-01-30T14:05:00;5.00;;;1.70;;
22774;SDS011;11554;51.106;3.684;2024-01-30T14:10:00;5.80;;;1.60;;
22774;SDS011;11554;51.106;3.684;2024-01-30T14:15:00;5.80;;;1.60;;
22774;SDS011;11554;51.106;3.684;2024-01-30T14:20:00;3.70;;;1.50;;
22774;SDS011;11554;51.106;3.684;2024-01-30T14:25:00;3.70;;;1.50;;
22774;SDS011;11554;51.106;3.684;2024-01-30T14:30:00;7.40;;;2.50;;
22774;SDS011;11554;51.106;3.684;2024-01-30T14:35:00;7.40;;;2.50;;
22774;SDS011;11554;51.106;3.684;2024-01-30T14:40:00;4.40;;;1.60;;
22774;SDS011;11554;51.106;3.684;2024-01-30T14:45:00;4.40;;;1.60;;
22774;SDS011;11554;51.106;3.684;2024-01-30T14:50:00;12.80;;;4.50;;
22774;SDS011;11554;51.106;3.684;2024-01-30T14:55:00;12.80;;;4.50;;
22774;SDS011;11554;51.106;3.684;2024-01-30T15:00:00;8.10;;;3.30;;
22774;SDS011;11554;51.106;3.684;2024-01-30T15:05:00;8.10;;;3.30;;
22774;SDS011;11554;51.106;3.684;2024-01-30T15:10:02;6.80;;;3.50;;
22774;SDS011;11554;51.106;3.684;2024-01-30T15:15:00;6.80;;;3.50;;
22774;SDS011;11554;51.106;3.684;2024-01-30T15:20:00;8.40;;;4.70;;
22774;SDS011;11554;51.106;3.684;2024-01-30T15:25:00;8.40;;;4.70;;
22774;SDS011;11554;51.106;3.684;2024-01-30T15:30:00;9.20;;;5.50;;
22774;SDS011;11554;51.106;3.684;2024-01-30T15:35:00;9.20;;;5.50;;
22774;SDS011;11554;51.106;3.684;2024-01-30T15:40:00;9.00;;;5.90;;
22774;SDS011;11554;51.106;3.684;2024-01-30T15:45:00;9.00;;;5.90;;
22774;SDS011;11554;51.106;3.684;2024-01-30T15:50:00;10.70;;;6.40;;
22774;SDS011;11554;51.106;3.684;2024-01-30T15:55:00;10.70;;;6.40;;
22774;SDS011;11554;51.106;3.684;2024-01-30T16:00:00;9.80;;;5.80;;
22774;SDS011;11554;51.106;3.684;2024-01-30T16:05:00;9.80;;;5.80;;
22774;SDS011;11554;51.106;3.684;2024-01-30T16:10:00;9.90;;;5.30;;
22774;SDS011;11554;51.106;3.684;2024-01-30T16:15:01;9.90;;;5.30;;
22774;SDS011;11554;51.106;3.684;2024-01-30T16:20:00;8.40;;;5.30;;
22774;SDS011;11554;51.106;3.684;2024-01-30T16:25:00;8.40;;;5.30;;
22774;SDS011;11554;51.106;3.684;2024-01-30T16:30:00;8.50;;;5.00;;
22774;SDS011;11554;51.106;3.684;2024-01-30T16:35:00;8.50;;;5.00;;
22774;SDS011;11554;51.106;3.684;2024-01-30T16:40:00;11.70;;;6.20;;
22774;SDS011;11554;51.106;3.684;2024-01-30T16:45:00;11.70;;;6.20;;
22774;SDS011;11554;51.106;3.684;2024-01-30T16:50:00;8.70;;;4.70;;
22774;SDS011;11554;51.106;3.684;2024-01-30T16:55:00;8.70;;;4.70;;
22774;SDS011;11554;51.106;3.684;2024-01-30T17:00:00;11.00;;;5.10;;
22774;SDS011;11554;51.106;3.684;2024-01-30T17:05:00;11.00;;;5.10;;
22774;SDS011;11554;51.106;3.684;2024-01-30T17:10:01;9.00;;;4.40;;
22774;SDS011;11554;51.106;3.684;2024-01-30T17:15:00;9.00;;;4.40;;
22774;SDS011;11554;51.106;3.684;2024-01-30T17:20:00;7.50;;;4.30;;
22774;SDS011;11554;51.106;3.684;2024-01-30T17:25:00;7.50;;;4.30;;
22774;SDS011;11554;51.106;3.684;2024-01-30T17:30:00;9.90;;;5.00;;
22774;SDS011;11554;51.106;3.684;2024-01-30T17:35:00;9.90;;;5.00;;
22774;SDS011;11554;51.106;3.684;2024-01-30T17:40:00;6.10;;;4.50;;
22774;SDS011;11554;51.106;3.684;2024-01-30T17:45:00;6.10;;;4.50;;
22774;SDS011;11554;51.106;3.684;2024-01-30T17:50:00;7.10;;;4.30;;
22774;SDS011;11554;51.106;3.684;2024-01-30T17:55:00;7.10;;;4.30;;
22774;SDS011;11554;51.106;3.684;2024-01-30T18:00:00;8.50;;;4.80;;
22774;SDS011;11554;51.106;3.684;2024-01-30T18:05:01;8.50;;;4.80;;
22774;SDS011;11554;51.106;3.684;2024-01-30T18:10:00;7.70;;;4.90;;
22774;SDS011;11554;51.106;3.684;2024-01-30T18:15:00;7.70;;;4.90;;
22774;SDS011;11554;51.106;3.684;2024-01-30T18:20:00;7.10;;;5.10;;
22774;SDS011;11554;51.106;3.684;2024-01-30T18:25:00;7.10;;;5.10;;
22774;SDS011;11554;51.106;3.684;2024-01-30T18:30:00;7.60;;;6.00;;
22774;SDS011;11554;51.106;3.684;2024-01-30T18:35:00;7.60;;;6.00;;
22774;SDS011;11554;51.106;3.684;2024-01-30T18:40:00;9.40;;;5.50;;
22774;SDS011;11554;51.106;3.684;2024-01-30T18:45:00;9.40;;;5.50;;
22774;SDS011;11554;51.106;3.684;2024-01-30T18:50:00;9.60;;;6.20;;
22774;SDS011;11554;51.106;3.684;2024-01-30T18:55:00;9.60;;;6.20;;
22774;SDS011;11554;51.106;3.684;2024-01-30T19:00:00;7.70;;;5.30;;
22774;SDS011;11554;51.106;3.684;2024-01-30T19:05:00;7.70;;;5.30;;
22774;SDS011;11554;51.106;3.684;2024-01-30T19:10:00;8.50;;;5.60;;
22774;SDS011;11554;51.106;3.684;2024-01-30T19:15:00;8.50;;;5.60;;
22774;SDS011;11554;51.106;3.684;2024-01-30T19:20:00;9.70;;;6.60;;
22774;SDS011;11554;51.106;3.684;2024-01-30T19:25:00;9.70;;;6.60;;
22774;SDS011;11554;51.106;3.684;2024-01-30T19:30:00;9.80;;;6.60;;
22774;SDS011;11554;51.106;3.684;2024-01-30T19:35:00;9.80;;;6.60;;
22774;SDS011;11554;51.106;3.684;2024-01-30T19:40:00;10.10;;;7.20;;
22774;SDS011;11554;51.106;3.684;2024-01-30T19:45:00;10.10;;;7.20;;
22774;SDS011;11554;51.106;3.684;2024-01-30T19:50:00;10.10;;;7.10;;
22774;SDS011;11554;51.106;3.684;2024-01-30T19:55:00;10.10;;;7.10;;
22774;SDS011;11554;51.106;3.684;2024-01-30T20:00:00;11.80;;;7.80;;
22774;SDS011;11554;51.106;3.684;2024-01-30T20:05:00;11.80;;;7.80;;
22774;SDS011;11554;51.106;3.684;2024-01-30T20:10:00;11.00;;;7.90;;
22774;SDS011;11554;51.106;3.684;2024-01-30T20:15:00;11.00;;;7.90;;
22774;SDS011;11554;51.106;3.684;2024-01-30T20:20:01;11.80;;;9.00;;
22774;SDS011;11554;51.106;3.684;2024-01-30T20:25:00;11.80;;;9.00;;
22774;SDS011;11554;51.106;3.684;2024-01-30T20:30:00;11.60;;;9.40;;
22774;SDS011;11554;51.106;3.684;2024-01-30T20:35:00;11.60;;;9.40;;
22774;SDS011;11554;51.106;3.684;2024-01-30T20:40:00;13.10;;;9.80;;
22774;SDS011;11554;51.106;3.684;2024-01-30T20:45:02;13.10;;;9.80;;
22774;SDS011;11554;51.106;3.684;2024-01-30T20:50:00;11.60;;;9.00;;
22774;SDS011;11554;51.106;3.684;2024-01-30T20:55:01;11.60;;;9.00;;
22774;SDS011;11554;51.106;3.684;2024-01-30T21:00:00;12.60;;;9.70;;
22774;SDS011;11554;51.106;3.684;2024-01-30T21:05:00;12.60;;;9.70;;
22774;SDS011;11554;51.106;3.684;2024-01-30T21:10:00;14.30;;;10.30;;
22774;SDS011;11554;51.106;3.684;2024-01-30T21:15:02;14.30;;;10.30;;
22774;SDS011;11554;51.106;3.684;2024-01-30T21:20:00;13.20;;;10.20;;
22774;SDS011;11554;51.106;3.684;2024-01-30T21:25:01;13.20;;;10.20;;
22774;SDS011;11554;51.106;3.684;2024-01-30T21:30:00;13.10;;;9.40;;
22774;SDS011;11554;51.106;3.684;2024-01-30T21:35:00;13.10;;;9.40;;
22774;SDS011;11554;51.106;3.684;2024-01-30T21:40:01;5.30;;;2.60;;
22774;SDS011;11554;51.106;3.684;2024-01-30T21:45:00;5.30;;;2.60;;
22774;SDS011;11554;51.106;3.684;2024-01-30T21:50:00;5.90;;;2.10;;
22774;SDS011;11554;51.106;3.684;2024-01-30T21:55:00;5.90;;;2.10;;
22774;SDS011;11554;51.106;3.684;2024-01-30T22:00:00;6.20;;;2.30;;
22774;SDS011;11554;51.106;3.684;2024-01-30T22:05:00;6.20;;;2.30;;
22774;SDS011;11554;51.106;3.684;2024-01-30T22:10:00;9.30;;;2.80;;
22774;SDS011;11554;51.106;3.684;2024-01-30T22:15:00;9.30;;;2.80;;
22774;SDS011;11554;51.106;3.684;2024-01-30T22:20:00;7.30;;;2.40;;
22774;SDS011;11554;51.106;3.684;2024-01-30T22:25:00;7.30;;;2.40;;
22774;SDS011;11554;51.106;3.684;2024-01-30T22:30:00;6.20;;;2.70;;
22774;SDS011;11554;51.106;3.684;2024-01-30T22:35:00;6.20;;;2.70;;
22774;SDS011;11554;51.106;3.684;2024-01-30T22:40:00;9.30;;;2.60;;
22774;SDS011;11554;51.106;3.684;2024-01-30T22:45:00;9.30;;;2.60;;
22774;SDS011;11554;51.106;3.684;2024-01-30T22:50:00;6.80;;;3.10;;
22774;SDS011;11554;51.106;3.684;2024-01-30T22:55:00;6.80;;;3.10;;
22774;SDS011;11554;51.106;3.684;2024-01-30T23:00:01;5.80;;;2.80;;
22774;SDS011;11554;51.106;3.684;2024-01-30T23:05:00;5.80;;;2.80;;
22774;SDS011;11554;51.106;3.684;2024-01-30T23:10:00;5.80;;;3.00;;
22774;SDS011;11554;51.106;3.684;2024-01-30T23:15:00;5.80;;;3.00;;
22774;SDS011;11554;51.106;3.684;2024-01-30T23:20:01;8.40;;;2.90;;
22774;SDS011;11554;51.106;3.684;2024-01-30T23:25:00;8.40;;;2.90;;
22774;SDS011;11554;51.106;3.684;2024-01-30T23:30:00;7.60;;;3.40;;
22774;SDS011;11554;51.106;3.684;2024-01-30T23:35:00;7.60;;;3.40;;
22774;SDS011;11554;51.106;3.684;2024-01-30T23:40:00;6.60;;;3.20;;
22774;SDS011;11554;51.106;3.684;2024-01-30T23:45:00;6.60;;;3.20;;
22774;SDS011;11554;51.106;3.684;2024-01-30T23:50:00;9.20;;;3.20;;
22774;SDS011;11554;51.106;3.684;2024-01-30T23:55:00;9.20;;;3.20;;
